Time;durP1;ratioP1;P1;durP2;ratioP2;P2;SDS_P1;SDS_P2;PMS_P1;PMS_P2;Temp;Humidity;BMP_temperature;BMP_pressure;BME280_temperature;BME280_humidity;BME280_pressure;Samples;Min_cycle;Max_cycle;Signal;HPM_P1;HPM_P2
2023/10/01 00:00:15;;;;;;;13.52;6.25;;;14.30;99.90;;;;;;5042942;28;20048;-73
2023/10/01 00:02:41;;;;;;;14.45;6.50;;;14.30;99.90;;;;;;5043443;28;20123;-73
2023/10/01 00:05:08;;;;;;;13.73;5.97;;;14.30;99.90;;;;;;5021258;28;20115;-73
2023/10/01 00:07:37;;;;;;;14.43;6.07;;;14.30;99.90;;;;;;5029389;28;20496;-73
2023/10/01 00:10:10;;;;;;;13.73;5.97;;;14.20;99.90;;;;;;5027928;28;20037;-72
2023/10/01 00:12:54;;;;;;;11.68;6.43;;;14.10;99.90;;;;;;5054740;28;20507;-73
2023/10/01 00:15:25;;;;;;;14.93;6.75;;;14.00;99.90;;;;;;5045073;28;20047;-72
2023/10/01 00:17:51;;;;;;;13.50;6.28;;;13.90;99.90;;;;;;5044282;28;20041;-73
2023/10/01 00:20:26;;;;;;;14.32;6.60;;;13.70;99.90;;;;;;5031711;28;20167;-73
2023/10/01 00:23:05;;;;;;;14.23;6.28;;;13.70;99.90;;;;;;5046743;28;20033;-73
2023/10/01 00:25:34;;;;;;;16.92;7.72;;;13.60;99.90;;;;;;5038637;28;20072;-72
2023/10/01 00:28:01;;;;;;;12.32;7.32;;;13.50;99.90;;;;;;5028787;28;20068;-72
2023/10/01 00:30:34;;;;;;;14.65;6.93;;;13.50;1.00;;;;;;5044999;28;20377;-72
2023/10/01 00:33:02;;;;;;;13.45;7.18;;;13.50;1.00;;;;;;5052900;28;20075;-73
2023/10/01 00:35:31;;;;;;;12.20;6.75;;;13.50;1.00;;;;;;5045655;28;20052;-72
2023/10/01 00:37:57;;;;;;;12.95;6.30;;;13.60;1.00;;;;;;5048035;28;20515;-72
2023/10/01 00:40:23;;;;;;;15.18;6.57;;;13.60;1.00;;;;;;5048061;28;20132;-73
2023/10/01 00:42:48;;;;;;;18.30;8.00;;;13.70;1.00;;;;;;5027320;28;20041;-72
2023/10/01 00:45:14;;;;;;;12.85;6.85;;;13.70;1.00;;;;;;5050775;28;20094;-72
2023/10/01 00:47:46;;;;;;;15.38;7.63;;;13.80;1.00;;;;;;5050168;28;20048;-72
2023/10/01 00:50:21;;;;;;;13.30;6.60;;;13.80;1.00;;;;;;5045885;28;20120;-72
2023/10/01 00:52:56;;;;;;;13.23;6.80;;;13.90;1.00;;;;;;5060017;28;20048;-72
2023/10/01 00:55:22;;;;;;;13.52;7.05;;;13.80;1.00;;;;;;5029828;28;20041;-72
2023/10/01 00:57:49;;;;;;;14.35;7.32;;;13.80;1.00;;;;;;5049618;28;20033;-72
2023/10/01 01:00:16;;;;;;;16.48;7.82;;;13.70;1.00;;;;;;5049054;28;20044;-72
2023/10/01 01:05:37;;;;;;;15.35;8.10;;;13.60;1.00;;;;;;5050105;28;20049;-72
2023/10/01 01:08:20;;;;;;;13.75;6.90;;;13.50;1.00;;;;;;5048032;28;20410;-72
2023/10/01 01:10:49;;;;;;;11.07;6.93;;;13.50;1.00;;;;;;5041047;28;20064;-72
2023/10/01 01:13:16;;;;;;;17.08;8.00;;;13.30;1.00;;;;;;5049033;28;20037;-72
2023/10/01 01:15:45;;;;;;;15.98;6.95;;;13.40;1.00;;;;;;5029457;28;20048;-72
2023/10/01 01:18:13;;;;;;;16.13;7.20;;;13.40;1.00;;;;;;5032796;28;20037;-72
2023/10/01 01:20:45;;;;;;;13.30;7.35;;;13.40;1.00;;;;;;5032161;28;20041;-72
2023/10/01 01:23:23;;;;;;;16.48;7.25;;;13.40;1.00;;;;;;5044791;28;20495;-73
2023/10/01 01:25:52;;;;;;;14.82;7.60;;;13.40;1.00;;;;;;5044218;28;20048;-72
2023/10/01 01:28:27;;;;;;;18.00;7.43;;;13.40;1.00;;;;;;5053595;28;20073;-72
2023/10/01 01:30:53;;;;;;;15.90;8.13;;;13.40;1.00;;;;;;5039955;28;20091;-72
2023/10/01 01:33:26;;;;;;;15.00;7.68;;;13.40;1.00;;;;;;5047620;28;20040;-72
2023/10/01 01:35:54;;;;;;;13.43;7.95;;;13.50;1.00;;;;;;5055841;28;20041;-72
2023/10/01 01:38:22;;;;;;;17.65;7.70;;;13.50;1.00;;;;;;5050882;28;20040;-73
2023/10/01 01:40:51;;;;;;;15.48;8.52;;;13.60;1.00;;;;;;5032018;28;20445;-72
2023/10/01 01:43:21;;;;;;;15.85;8.25;;;13.60;1.00;;;;;;5048054;28;20377;-72
2023/10/01 01:45:54;;;;;;;20.42;7.80;;;13.70;1.00;;;;;;5032686;28;20049;-72
2023/10/01 01:48:34;;;;;;;14.68;7.70;;;13.70;1.00;;;;;;5041057;28;20076;-73
2023/10/01 01:51:00;;;;;;;17.33;7.40;;;13.70;1.00;;;;;;5048294;28;20504;-72
2023/10/01 01:53:27;;;;;;;15.30;7.60;;;13.80;1.00;;;;;;5048590;28;20415;-72
2023/10/01 01:55:56;;;;;;;14.93;7.57;;;13.80;1.00;;;;;;5025266;28;20037;-72
2023/10/01 01:58:26;;;;;;;19.92;7.55;;;13.90;1.00;;;;;;5049811;28;20041;-72
2023/10/01 02:01:01;;;;;;;14.77;7.97;;;13.90;1.00;;;;;;5041935;28;20166;-72
2023/10/01 02:03:27;;;;;;;14.60;8.00;;;13.90;1.00;;;;;;5041849;28;20120;-72
2023/10/01 02:05:53;;;;;;;14.63;7.90;;;14.00;1.00;;;;;;5047998;28;20048;-72
2023/10/01 02:08:24;;;;;;;15.88;8.48;;;14.00;1.00;;;;;;5059206;28;20102;-72
2023/10/01 02:10:56;;;;;;;15.70;7.72;;;14.00;1.00;;;;;;5055738;28;20145;-72
2023/10/01 02:13:25;;;;;;;17.83;7.82;;;14.00;1.00;;;;;;5028197;28;20056;-72
2023/10/01 02:15:51;;;;;;;15.68;8.50;;;14.00;1.00;;;;;;5026653;28;20083;-72
2023/10/01 02:18:17;;;;;;;16.40;8.23;;;14.10;1.00;;;;;;5047667;28;20583;-72
2023/10/01 02:20:56;;;;;;;13.13;8.25;;;14.00;1.00;;;;;;5023648;28;20045;-72
2023/10/01 02:23:33;;;;;;;15.73;8.48;;;14.10;1.00;;;;;;5059648;28;20037;-72
2023/10/01 02:26:06;;;;;;;13.50;7.70;;;14.10;1.00;;;;;;5036653;28;20051;-72
2023/10/01 02:28:33;;;;;;;14.13;7.65;;;14.10;1.00;;;;;;5052582;28;20048;-72
2023/10/01 02:31:01;;;;;;;14.75;8.07;;;14.10;1.00;;;;;;5053619;28;20048;-72
2023/10/01 02:36:15;;;;;;;19.15;8.40;;;14.20;1.00;;;;;;5060497;28;20068;-72
2023/10/01 02:38:45;;;;;;;14.38;8.00;;;14.20;1.00;;;;;;5029475;28;20380;-72
2023/10/01 02:41:15;;;;;;;14.52;8.35;;;14.20;1.00;;;;;;5029160;28;20221;-73
2023/10/01 02:43:41;;;;;;;14.25;8.32;;;14.20;1.00;;;;;;5056473;28;20141;-72
2023/10/01 02:46:12;;;;;;;12.95;7.55;;;14.20;1.00;;;;;;5035359;28;20041;-71
2023/10/01 02:48:42;;;;;;;14.85;8.13;;;14.20;1.00;;;;;;5050519;28;20083;-72
2023/10/01 02:51:14;;;;;;;15.50;7.85;;;14.20;1.00;;;;;;5061720;28;20085;-71
2023/10/01 02:56:33;;;;;;;17.05;8.85;;;14.30;1.00;;;;;;5054304;28;20041;-72
2023/10/01 02:59:11;;;;;;;14.82;8.20;;;14.20;1.00;;;;;;5046802;28;20094;-72
2023/10/01 03:01:46;;;;;;;15.00;8.30;;;14.30;1.00;;;;;;5058388;28;20037;-72
2023/10/01 03:04:13;;;;;;;13.18;7.95;;;14.30;1.00;;;;;;5026369;28;20032;-71
2023/10/01 03:06:47;;;;;;;14.00;8.13;;;14.30;1.00;;;;;;5038996;28;20044;-71
2023/10/01 03:09:39;;;;;;;13.07;7.32;;;14.40;1.00;;;;;;5047197;28;20048;-72
2023/10/01 03:15:16;;;;;;;12.52;8.50;;;14.40;1.00;;;;;;5041793;28;20053;-72
2023/10/01 03:17:56;;;;;;;15.40;8.20;;;14.40;1.00;;;;;;5047106;28;20043;-73
2023/10/01 03:23:05;;;;;;;17.45;8.77;;;14.30;1.00;;;;;;5050008;28;20045;-73
2023/10/01 03:25:42;;;;;;;12.90;8.10;;;14.40;1.00;;;;;;5037717;28;20044;-73
2023/10/01 03:28:25;;;;;;;17.98;8.43;;;14.40;1.00;;;;;;5046883;28;20056;-73
2023/10/01 03:31:06;;;;;;;18.38;8.05;;;14.40;1.00;;;;;;5038702;28;20091;-73
2023/10/01 03:33:33;;;;;;;11.82;7.50;;;14.40;1.00;;;;;;5028050;28;20407;-72
2023/10/01 03:35:59;;;;;;;15.30;7.78;;;14.40;1.00;;;;;;5048761;28;20047;-73
2023/10/01 03:38:25;;;;;;;14.60;8.30;;;14.40;1.00;;;;;;5053870;28;20036;-73
2023/10/01 03:40:59;;;;;;;17.90;8.68;;;14.40;1.00;;;;;;5033023;28;20674;-72
2023/10/01 03:43:32;;;;;;;13.57;8.05;;;14.40;1.00;;;;;;5044983;28;20048;-73
2023/10/01 03:46:07;;;;;;;16.10;7.80;;;14.40;1.00;;;;;;5042572;28;20507;-72
2023/10/01 03:48:57;;;;;;;14.20;7.80;;;14.50;1.00;;;;;;5032508;28;20053;-73
2023/10/01 03:51:52;;;;;;;13.77;7.80;;;14.50;1.00;;;;;;5041784;28;20067;-73
2023/10/01 03:54:16;;;;;;;14.88;7.90;;;14.40;1.00;;;;;;5041243;28;20045;-73
2023/10/01 03:56:55;;;;;;;15.65;7.95;;;14.50;99.90;;;;;;5046162;28;20029;-73
2023/10/01 03:59:22;;;;;;;14.73;8.18;;;14.50;99.90;;;;;;5046601;28;20049;-73
2023/10/01 04:02:00;;;;;;;14.75;7.40;;;14.50;99.90;;;;;;5029046;28;20029;-73
2023/10/01 04:04:56;;;;;;;15.20;7.35;;;14.50;99.90;;;;;;5031130;28;20037;-73
2023/10/01 04:07:26;;;;;;;13.40;7.75;;;14.50;99.90;;;;;;5050026;28;20080;-73
2023/10/01 04:09:55;;;;;;;11.65;7.30;;;14.50;99.90;;;;;;5031677;28;20029;-73
2023/10/01 04:12:28;;;;;;;16.88;7.40;;;14.40;99.90;;;;;;5032425;28;20102;-73
2023/10/01 04:15:01;;;;;;;13.55;7.18;;;14.50;99.90;;;;;;5052139;28;20048;-74
2023/10/01 04:17:28;;;;;;;13.48;6.97;;;14.40;99.90;;;;;;5055846;28;20044;-73
2023/10/01 04:20:00;;;;;;;12.82;7.20;;;14.50;99.90;;;;;;5050871;28;20434;-73
2023/10/01 04:22:29;;;;;;;12.80;7.28;;;14.40;99.90;;;;;;5055781;28;20049;-73
2023/10/01 04:25:09;;;;;;;13.10;7.00;;;14.40;99.90;;;;;;5030450;28;20086;-73
2023/10/01 04:27:42;;;;;;;13.45;7.32;;;14.50;99.90;;;;;;5037668;28;20032;-73
2023/10/01 04:30:09;;;;;;;13.52;7.18;;;14.50;99.90;;;;;;5056672;28;20051;-73
2023/10/01 04:32:36;;;;;;;13.32;7.28;;;14.50;99.90;;;;;;5036640;28;20076;-73
2023/10/01 04:35:14;;;;;;;12.73;7.22;;;14.50;99.90;;;;;;5039573;28;20430;-73
2023/10/01 04:37:41;;;;;;;17.00;6.70;;;14.50;99.90;;;;;;5043476;28;20037;-73
2023/10/01 04:40:31;;;;;;;15.05;7.45;;;14.50;99.90;;;;;;5046968;28;20091;-73
2023/10/01 04:43:03;;;;;;;12.32;7.38;;;14.60;99.90;;;;;;5053358;28;20040;-73
2023/10/01 04:45:36;;;;;;;12.13;6.50;;;14.50;99.90;;;;;;5046664;28;20414;-73
2023/10/01 04:48:13;;;;;;;13.00;6.78;;;14.60;99.90;;;;;;5047679;28;20131;-73
2023/10/01 04:50:40;;;;;;;13.35;6.57;;;14.60;99.90;;;;;;5056971;28;20057;-73
2023/10/01 04:53:07;;;;;;;13.30;7.05;;;14.60;99.90;;;;;;5029185;28;20087;-73
2023/10/01 04:55:41;;;;;;;12.50;7.68;;;14.60;99.90;;;;;;5065038;28;20053;-73
2023/10/01 04:58:12;;;;;;;12.93;6.63;;;14.60;99.90;;;;;;5047742;28;20055;-73
2023/10/01 05:00:44;;;;;;;14.48;7.13;;;14.60;99.90;;;;;;5048129;28;20029;-73
2023/10/01 05:03:14;;;;;;;15.85;7.65;;;14.60;99.90;;;;;;5044920;28;20106;-73
2023/10/01 05:05:42;;;;;;;12.75;6.22;;;14.60;99.90;;;;;;5047987;28;20399;-73
2023/10/01 05:08:12;;;;;;;17.40;7.32;;;14.60;99.90;;;;;;5030249;28;20555;-73
2023/10/01 05:10:51;;;;;;;13.10;6.80;;;14.60;99.90;;;;;;5045845;28;20091;-72
2023/10/01 05:13:22;;;;;;;13.93;6.72;;;14.60;99.90;;;;;;5033020;28;20075;-72
2023/10/01 05:15:57;;;;;;;15.13;6.63;;;14.60;99.90;;;;;;5022862;28;20047;-73
2023/10/01 05:18:27;;;;;;;12.98;6.30;;;14.60;99.90;;;;;;5048069;28;20090;-73
2023/10/01 05:20:58;;;;;;;13.68;6.63;;;14.60;99.90;;;;;;5048542;28;20136;-73
2023/10/01 05:23:27;;;;;;;13.18;6.32;;;14.60;99.90;;;;;;5049542;28;20499;-73
2023/10/01 05:25:56;;;;;;;9.50;5.82;;;14.70;99.90;;;;;;5027687;28;20041;-72
2023/10/01 05:28:31;;;;;;;12.90;6.70;;;14.70;99.90;;;;;;5047965;28;20049;-73
2023/10/01 05:31:15;;;;;;;14.18;6.57;;;14.70;99.90;;;;;;5042777;28;20484;-72
2023/10/01 05:33:52;;;;;;;13.48;5.95;;;14.60;99.90;;;;;;5055354;28;20045;-72
2023/10/01 05:36:18;;;;;;;13.68;6.38;;;14.60;99.90;;;;;;5030190;28;20044;-72
2023/10/01 05:38:45;;;;;;;13.73;6.88;;;14.40;99.90;;;;;;5047815;28;20048;-73
2023/10/01 05:41:15;;;;;;;11.52;6.18;;;14.30;99.90;;;;;;5053897;28;20077;-72
2023/10/01 05:43:50;;;;;;;13.68;6.93;;;14.10;99.90;;;;;;5037686;28;20045;-72
2023/10/01 05:46:22;;;;;;;18.30;8.07;;;14.00;99.90;;;;;;5049074;28;20187;-71
2023/10/01 05:48:55;;;;;;;14.07;7.03;;;13.90;1.00;;;;;;5042353;28;20053;-72
2023/10/01 05:51:30;;;;;;;11.85;7.43;;;13.80;1.00;;;;;;5025575;28;20064;-72
2023/10/01 05:53:56;;;;;;;15.70;7.68;;;13.80;1.00;;;;;;5024841;28;20041;-72
2023/10/01 05:56:24;;;;;;;15.02;7.65;;;13.80;1.00;;;;;;5042737;28;20048;-73
2023/10/01 05:58:50;;;;;;;15.82;7.38;;;13.70;1.00;;;;;;5011713;28;20361;-73
2023/10/01 06:01:21;;;;;;;15.93;7.60;;;13.80;1.00;;;;;;5038396;28;20052;-73
2023/10/01 06:03:51;;;;;;;14.55;7.60;;;13.70;1.00;;;;;;5044319;28;20041;-73
2023/10/01 06:06:26;;;;;;;16.73;7.72;;;13.70;1.00;;;;;;5047331;28;20575;-73
2023/10/01 06:08:59;;;;;;;17.58;7.97;;;13.80;1.00;;;;;;5028402;28;20177;-73
2023/10/01 06:11:38;;;;;;;11.98;7.22;;;13.70;1.00;;;;;;5041340;28;20408;-73
2023/10/01 06:14:08;;;;;;;17.05;7.57;;;13.70;1.00;;;;;;5044811;28;20040;-73
2023/10/01 06:16:40;;;;;;;13.27;7.05;;;13.70;1.00;;;;;;5047190;28;20094;-73
2023/10/01 06:19:11;;;;;;;15.38;7.55;;;13.80;1.00;;;;;;5031476;28;20439;-73
2023/10/01 06:21:39;;;;;;;14.20;7.10;;;13.70;1.00;;;;;;5036866;28;20395;-73
2023/10/01 06:24:07;;;;;;;19.52;7.55;;;13.80;2.50;;;;;;5038861;28;20048;-73
2023/10/01 06:26:56;;;;;;;13.10;7.05;;;13.80;14.50;;;;;;5045960;28;20037;-74
2023/10/01 06:29:19;;;;;;;14.98;6.82;;;13.80;21.40;;;;;;5039322;28;20353;-74
2023/10/01 06:31:48;;;;;;;12.02;6.53;;;13.80;28.40;;;;;;5031989;28;20487;-74
2023/10/01 06:34:21;;;;;;;15.57;6.75;;;13.80;36.50;;;;;;5030212;28;20400;-73
2023/10/01 06:36:56;;;;;;;15.52;7.25;;;13.90;46.70;;;;;;5043964;28;20041;-74
2023/10/01 06:39:23;;;;;;;14.65;6.70;;;13.90;53.90;;;;;;5055998;28;20120;-74
2023/10/01 06:41:49;;;;;;;16.83;7.18;;;14.00;57.20;;;;;;5031455;28;20049;-74
2023/10/01 06:44:15;;;;;;;15.70;7.10;;;14.00;57.10;;;;;;5029923;28;20459;-74
2023/10/01 06:46:41;;;;;;;12.07;6.18;;;14.00;60.10;;;;;;5026130;28;20039;-74
2023/10/01 06:49:08;;;;;;;14.07;6.63;;;14.00;64.40;;;;;;5043000;28;20045;-74
2023/10/01 06:51:43;;;;;;;14.70;6.30;;;14.00;73.20;;;;;;5029335;28;20063;-74
2023/10/01 06:54:10;;;;;;;19.38;6.43;;;14.00;80.70;;;;;;5054279;28;20597;-74
2023/10/01 06:56:47;;;;;;;12.65;6.75;;;14.10;85.90;;;;;;5028817;28;21146;-74
2023/10/01 06:59:14;;;;;;;13.25;7.05;;;14.20;92.00;;;;;;5037927;28;20047;-73
2023/10/01 07:01:47;;;;;;;20.67;6.85;;;14.20;93.60;;;;;;5042671;28;20029;-74
2023/10/01 07:04:15;;;;;;;12.73;6.47;;;14.30;94.30;;;;;;5027275;28;20596;-74
2023/10/01 07:06:44;;;;;;;14.50;5.78;;;14.30;94.50;;;;;;5036648;28;20564;-74
2023/10/01 07:09:32;;;;;;;15.20;6.40;;;14.30;94.30;;;;;;5029541;28;20033;-74
2023/10/01 07:11:59;;;;;;;16.00;5.82;;;14.30;97.00;;;;;;5043417;28;20043;-74
2023/10/01 07:14:38;;;;;;;16.73;6.55;;;14.30;99.90;;;;;;5041826;28;20037;-74
2023/10/01 07:17:15;;;;;;;13.35;6.80;;;14.40;99.90;;;;;;5033137;28;20045;-74
2023/10/01 07:19:46;;;;;;;14.00;6.22;;;14.50;99.90;;;;;;5044767;28;20037;-74
2023/10/01 07:22:14;;;;;;;16.50;6.38;;;14.50;99.90;;;;;;5019598;28;20048;-74
2023/10/01 07:24:43;;;;;;;15.70;6.32;;;14.50;99.90;;;;;;5040034;28;20041;-74
2023/10/01 07:27:11;;;;;;;14.57;6.80;;;14.60;99.90;;;;;;5043940;28;20047;-74
2023/10/01 07:29:41;;;;;;;11.10;5.82;;;14.60;99.90;;;;;;5027583;28;20069;-74
2023/10/01 07:32:11;;;;;;;16.40;6.05;;;14.70;99.90;;;;;;5029904;28;20037;-74
2023/10/01 07:34:48;;;;;;;11.63;6.00;;;14.70;99.90;;;;;;5049302;28;20167;-74
2023/10/01 07:37:24;;;;;;;14.80;5.85;;;14.70;99.90;;;;;;5046857;28;20076;-74
2023/10/01 07:39:52;;;;;;;;;;;14.80;99.90;;;;;;5036886;28;20061;-74
2023/10/01 07:42:18;;;;;;;14.95;6.85;;;14.80;99.90;;;;;;5046605;28;19916;-74
2023/10/01 07:44:45;;;;;;;13.02;5.65;;;14.80;99.90;;;;;;5031018;28;20048;-74
2023/10/01 07:47:28;;;;;;;15.82;6.32;;;14.80;99.90;;;;;;5034242;28;20041;-74
2023/10/01 07:50:05;;;;;;;13.18;6.43;;;14.90;99.90;;;;;;5041190;28;20092;-74
2023/10/01 07:52:36;;;;;;;12.55;5.82;;;15.00;99.90;;;;;;5066087;28;20053;-73
2023/10/01 07:55:29;;;;;;;13.13;5.85;;;15.10;99.90;;;;;;5031047;28;20029;-74
2023/10/01 07:57:49;;;;;;;17.15;6.72;;;15.10;99.90;;;;;;5064855;28;20056;-73
2023/10/01 08:00:34;;;;;;;11.65;6.00;;;15.30;99.90;;;;;;5033407;28;20043;-74
2023/10/01 08:05:47;;;;;;;11.52;5.90;;;15.60;99.90;;;;;;5042834;28;20051;-74
2023/10/01 08:08:14;;;;;;;12.27;5.68;;;15.60;99.90;;;;;;5031876;28;20036;-73
2023/10/01 08:10:43;;;;;;;12.10;5.75;;;15.60;99.90;;;;;;5042569;28;20037;-74
2023/10/01 08:13:23;;;;;;;13.70;6.10;;;15.50;99.90;;;;;;5051410;28;20499;-74
2023/10/01 08:16:01;;;;;;;11.38;6.15;;;15.50;99.90;;;;;;5023605;28;20028;-74
2023/10/01 08:18:42;;;;;;;12.43;5.88;;;15.40;99.90;;;;;;5055896;28;20435;-73
2023/10/01 08:21:17;;;;;;;11.00;6.07;;;15.30;99.90;;;;;;5026664;28;20090;-74
2023/10/01 08:23:48;;;;;;;15.60;5.57;;;15.30;99.90;;;;;;5048963;28;20483;-74
2023/10/01 08:28:59;;;;;;;12.27;5.63;;;15.20;99.90;;;;;;5055626;28;20414;-74
2023/10/01 08:34:28;;;;;;;9.07;5.30;;;15.50;99.90;;;;;;5065711;28;20041;-74
2023/10/01 08:36:56;;;;;;;13.45;5.95;;;15.60;99.90;;;;;;5031965;28;20037;-74
2023/10/01 08:39:34;;;;;;;14.00;5.82;;;15.70;99.90;;;;;;5049484;28;20055;-73
2023/10/01 08:42:11;;;;;;;11.57;5.30;;;15.80;99.90;;;;;;5026685;28;20060;-74
2023/10/01 08:44:49;;;;;;;8.57;4.82;;;15.90;99.90;;;;;;5028990;28;20040;-74
2023/10/01 08:50:15;;;;;;;11.95;5.70;;;16.00;94.60;;;;;;5044370;28;20098;-74
2023/10/01 08:52:52;;;;;;;11.27;4.68;;;16.10;90.60;;;;;;5045456;28;20641;-74
2023/10/01 08:55:21;;;;;;;9.57;4.60;;;16.20;58.40;;;;;;5045135;28;20117;-74
2023/10/01 08:57:52;;;;;;;12.68;5.20;;;16.20;51.00;;;;;;5045615;28;20052;-73
2023/10/01 09:00:20;;;;;;;11.05;4.43;;;16.30;60.50;;;;;;5029203;28;20044;-73
2023/10/01 09:03:11;;;;;;;11.70;5.38;;;16.40;57.70;;;;;;5041712;28;20334;-74
2023/10/01 09:05:36;;;;;;;9.63;4.65;;;16.40;19.40;;;;;;5040177;28;20052;-74
2023/10/01 09:08:26;;;;;;;13.88;5.38;;;16.40;23.20;;;;;;5046735;28;20025;-74
2023/10/01 09:10:55;;;;;;;10.68;4.45;;;16.40;32.40;;;;;;5053785;28;20075;-74
2023/10/01 09:13:22;;;;;;;14.52;4.90;;;16.60;42.30;;;;;;5022908;28;20049;-74
2023/10/01 09:15:54;;;;;;;10.35;4.70;;;16.70;28.80;;;;;;5030911;28;20052;-74
2023/10/01 09:18:22;;;;;;;15.20;4.78;;;16.80;13.80;;;;;;5046367;28;20621;-74
2023/10/01 09:21:08;;;;;;;11.63;4.53;;;16.80;13.80;;;;;;5058881;28;20048;-74
2023/10/01 09:24:12;;;;;;;11.10;4.47;;;16.80;9.30;;;;;;5025914;28;20054;-74
2023/10/01 09:26:39;;;;;;;16.27;4.43;;;16.90;1.00;;;;;;5056589;28;20527;-74
2023/10/01 09:29:21;;;;;;;8.25;3.78;;;17.00;17.00;;;;;;5044259;28;20041;-75
2023/10/01 09:31:59;;;;;;;12.90;4.68;;;17.20;1.00;;;;;;5061704;28;20041;-75
2023/10/01 09:34:35;;;;;;;10.38;4.43;;;17.40;1.00;;;;;;5059288;28;20392;-74
2023/10/01 09:37:11;;;;;;;9.48;4.22;;;17.60;1.00;;;;;;5026224;28;20044;-74
2023/10/01 09:39:38;;;;;;;;;;;17.80;1.00;;;;;;5039802;28;22076;-75
2023/10/01 09:42:22;;;;;;;;;;;18.00;1.00;;;;;;5043396;28;19921;-75
2023/10/01 09:44:55;;;;;;;10.45;4.65;;;18.00;99.90;;;;;;5037298;28;19921;-75
2023/10/01 09:47:24;;;;;;;11.70;4.78;;;18.10;1.00;;;;;;5053002;28;20038;-75
2023/10/01 09:49:52;;;;;;;13.35;4.97;;;18.20;1.00;;;;;;5044185;28;20036;-74
2023/10/01 09:52:27;;;;;;;13.07;4.85;;;18.20;1.00;;;;;;5045660;28;20113;-75
2023/10/01 09:55:02;;;;;;;11.23;4.27;;;18.20;1.00;;;;;;5030573;28;20052;-74
2023/10/01 09:57:34;;;;;;;11.32;4.30;;;18.30;1.00;;;;;;5045687;28;20076;-75
2023/10/01 10:00:20;;;;;;;11.25;4.20;;;18.60;1.00;;;;;;5054586;28;20071;-75
2023/10/01 10:02:53;;;;;;;15.70;4.53;;;18.90;1.00;;;;;;5056140;28;20050;-75
2023/10/01 10:05:26;;;;;;;11.90;4.10;;;18.90;99.90;;;;;;5031618;28;20055;-75
2023/10/01 10:08:13;;;;;;;11.27;4.70;;;18.80;99.90;;;;;;5050704;28;20041;-75
2023/10/01 10:10:48;;;;;;;11.18;4.32;;;18.90;99.90;;;;;;5032628;28;20082;-75
2023/10/01 10:13:38;;;;;;;12.90;4.63;;;18.80;99.90;;;;;;5022000;28;20056;-76
2023/10/01 10:19:04;;;;;;;11.15;4.88;;;18.90;99.90;;;;;;5046588;28;20087;-76
2023/10/01 10:24:29;;;;;;;15.32;4.97;;;19.20;1.00;;;;;;5046186;28;20430;-76
2023/10/01 10:27:00;;;;;;;11.20;5.03;;;19.30;1.00;;;;;;5039049;28;20037;-76
2023/10/01 10:29:57;;;;;;;10.30;4.70;;;19.40;1.00;;;;;;5046603;28;20053;-76
2023/10/01 10:32:26;;;;;;;8.88;3.80;;;19.60;1.00;;;;;;5045735;28;20041;-75
2023/10/01 10:35:04;;;;;;;11.75;4.68;;;19.80;1.00;;;;;;5030735;28;20045;-75
2023/10/01 10:37:36;;;;;;;9.82;4.18;;;20.10;99.90;;;;;;5044230;28;20144;-76
2023/10/01 10:42:58;;;;;;;11.27;4.55;;;20.90;99.90;;;;;;5048717;28;20696;-75
2023/10/01 10:45:29;;;;;;;13.07;4.47;;;21.30;99.90;;;;;;5027841;28;20124;-75
2023/10/01 10:48:04;;;;;;;10.88;4.05;;;21.50;99.90;;;;;;5028754;28;20048;-75
2023/10/01 10:50:50;;;;;;;12.50;4.07;;;21.70;99.90;;;;;;5046180;28;20057;-76
2023/10/01 10:53:22;;;;;;;9.95;4.18;;;21.60;37.00;;;;;;5045056;28;20059;-76
2023/10/01 10:56:00;;;;;;;13.10;4.47;;;21.30;99.90;;;;;;5047888;28;20053;-76
2023/10/01 10:58:28;;;;;;;10.93;4.63;;;21.20;99.90;;;;;;5042768;28;20041;-74
2023/10/01 11:00:56;;;;;;;7.85;3.90;;;21.30;99.90;;;;;;5061737;28;20056;-76
2023/10/01 11:03:42;;;;;;;11.20;4.65;;;21.40;99.90;;;;;;5047250;28;20041;-75
2023/10/01 11:06:17;;;;;;;10.75;3.78;;;21.30;99.90;;;;;;5028230;28;20045;-76
2023/10/01 11:08:51;;;;;;;10.13;4.20;;;21.30;99.90;;;;;;5026837;28;20115;-76
2023/10/01 11:11:28;;;;;;;10.10;4.28;;;21.20;99.90;;;;;;5048733;28;20044;-76
2023/10/01 11:14:03;;;;;;;10.43;3.97;;;21.10;60.70;;;;;;5028203;28;20570;-76
2023/10/01 11:16:39;;;;;;;8.50;3.83;;;21.10;99.90;;;;;;5034269;28;20052;-76
2023/10/01 11:19:12;;;;;;;9.82;4.10;;;21.10;96.50;;;;;;5053992;28;20098;-76
2023/10/01 11:21:55;;;;;;;10.18;4.22;;;21.10;94.20;;;;;;5028207;28;20044;-76
2023/10/01 11:24:25;;;;;;;9.32;4.30;;;21.10;35.60;;;;;;5048788;28;20037;-76
2023/10/01 11:27:25;;;;;;;10.05;4.82;;;21.10;74.20;;;;;;5037123;28;20044;-76
2023/10/01 11:30:13;;;;;;;12.05;4.95;;;21.20;39.10;;;;;;5037919;28;20128;-76
2023/10/01 11:32:58;;;;;;;9.38;3.97;;;21.30;52.50;;;;;;5035684;28;20118;-76
2023/10/01 11:35:32;;;;;;;11.43;4.38;;;21.50;77.40;;;;;;5039252;28;20072;-76
2023/10/01 11:38:07;;;;;;;11.85;4.88;;;21.60;60.60;;;;;;5046334;28;20597;-76
2023/10/01 11:43:32;;;;;;;11.30;4.85;;;22.00;51.00;;;;;;5045072;28;20044;-76
2023/10/01 11:46:23;;;;;;;7.50;4.05;;;22.20;44.40;;;;;;5024306;28;20044;-76
2023/10/01 11:49:09;;;;;;;10.23;4.40;;;22.30;49.60;;;;;;5040649;28;20041;-76
2023/10/01 11:51:50;;;;;;;10.63;4.55;;;22.50;26.60;;;;;;5042362;28;20132;-76
2023/10/01 11:54:25;;;;;;;12.48;4.00;;;22.70;8.20;;;;;;5026747;28;20053;-76
2023/10/01 11:57:08;;;;;;;13.32;4.55;;;23.10;6.50;;;;;;5042176;28;20041;-76
2023/10/01 11:59:42;;;;;;;11.75;4.75;;;23.40;1.00;;;;;;5033844;28;20071;-75
2023/10/01 12:02:20;;;;;;;10.23;4.38;;;23.70;1.00;;;;;;5046882;28;20528;-76
2023/10/01 12:04:59;;;;;;;10.63;3.97;;;23.80;1.00;;;;;;5045177;28;20076;-76
2023/10/01 12:07:39;;;;;;;14.07;5.13;;;23.70;1.00;;;;;;5023395;28;20657;-76
2023/10/01 12:10:07;;;;;;;10.32;4.40;;;23.50;1.00;;;;;;5051970;28;20458;-75
2023/10/01 12:12:39;;;;;;;13.60;4.75;;;23.30;1.00;;;;;;5045912;28;20495;-76
2023/10/01 12:17:54;;;;;;;10.00;3.67;;;23.10;1.00;;;;;;5046099;28;20067;-76
2023/10/01 12:20:23;;;;;;;9.85;4.10;;;22.90;1.00;;;;;;5039725;28;20044;-76
2023/10/01 12:23:11;;;;;;;11.32;4.80;;;23.00;1.00;;;;;;5042321;28;20040;-76
2023/10/01 12:28:29;;;;;;;9.27;3.90;;;23.00;1.00;;;;;;5041796;28;20396;-76
2023/10/01 12:31:08;;;;;;;10.68;4.63;;;22.70;1.00;;;;;;5018576;28;20048;-76
2023/10/01 12:33:42;;;;;;;11.63;4.72;;;22.70;1.00;;;;;;5050090;28;20163;-76
2023/10/01 12:36:31;;;;;;;12.07;4.30;;;22.60;1.00;;;;;;5040502;28;20042;-76
2023/10/01 12:41:56;;;;;;;11.88;4.40;;;22.70;1.00;;;;;;5039760;28;20052;-76
2023/10/01 12:44:29;;;;;;;10.25;3.95;;;22.70;1.00;;;;;;5042771;28;20071;-75
2023/10/01 12:47:00;;;;;;;10.68;4.47;;;23.20;1.00;;;;;;5049641;28;20041;-76
2023/10/01 12:49:26;;;;;;;10.77;3.97;;;23.80;1.00;;;;;;5047923;28;20511;-77
2023/10/01 12:51:54;;;;;;;8.60;3.83;;;24.70;1.00;;;;;;5025989;28;21889;-75
2023/10/01 12:54:25;;;;;;;11.45;4.35;;;25.30;1.00;;;;;;5051694;28;20071;-76
2023/10/01 12:57:18;;;;;;;10.45;4.28;;;26.30;1.00;;;;;;5026669;28;20050;-76
2023/10/01 12:59:46;;;;;;;10.68;4.65;;;26.70;1.00;;;;;;5030529;28;20036;-76
2023/10/01 13:07:40;;;;;;;8.60;4.40;;;27.40;1.00;;;;;;5048888;28;20469;-76
2023/10/01 13:10:07;;;;;;;10.50;4.28;;;26.90;1.00;;;;;;5023922;28;20044;-76
2023/10/01 13:15:29;;;;;;;9.90;4.50;;;26.60;1.00;;;;;;5041140;28;20051;-76
2023/10/01 13:18:00;;;;;;;9.02;3.85;;;26.30;1.00;;;;;;5040547;28;20040;-76
2023/10/01 13:20:28;;;;;;;10.88;4.50;;;25.70;1.00;;;;;;5035703;28;20044;-76
2023/10/01 13:23:06;;;;;;;12.95;4.80;;;25.40;1.00;;;;;;5021495;28;20036;-76
2023/10/01 13:25:39;;;;;;;10.07;4.03;;;25.20;1.00;;;;;;5038865;28;21827;-76
2023/10/01 13:28:05;;;;;;;12.68;4.35;;;24.90;1.00;;;;;;5025299;28;20486;-76
2023/10/01 13:33:20;;;;;;;8.98;3.92;;;24.80;1.00;;;;;;5048619;28;20119;-75
2023/10/01 13:35:56;;;;;;;9.63;3.80;;;24.60;1.00;;;;;;5041404;28;20037;-75
2023/10/01 13:38:27;;;;;;;10.05;4.20;;;24.60;1.00;;;;;;5021505;28;20052;-76
2023/10/01 14:11:04;;;;;;;13.43;5.05;;;23.10;1.00;;;;;;5039638;28;20051;-76
2023/10/01 14:13:34;;;;;;;12.15;4.38;;;23.40;1.00;;;;;;5038055;28;20037;-75
2023/10/01 14:19:15;;;;;;;9.88;3.90;;;23.60;1.00;;;;;;4978176;28;20061;-76
2023/10/01 14:21:40;;;;;;;10.85;4.43;;;23.60;1.00;;;;;;5018516;28;20426;-76
2023/10/01 14:24:22;;;;;;;9.82;4.07;;;23.60;1.00;;;;;;5023719;28;20040;-75
2023/10/01 14:26:48;;;;;;;11.65;4.63;;;23.60;1.00;;;;;;5022356;28;21704;-77
2023/10/01 14:29:22;;;;;;;10.73;4.28;;;23.40;1.00;;;;;;5025333;28;20130;-75
2023/10/01 14:31:49;;;;;;;11.80;4.70;;;23.20;1.00;;;;;;5025569;28;20118;-75
2023/10/01 14:34:20;;;;;;;10.02;4.93;;;23.00;1.00;;;;;;5041113;28;20526;-75
2023/10/01 14:36:58;;;;;;;13.13;4.78;;;22.90;1.00;;;;;;5039828;28;20101;-76
2023/10/01 14:39:30;;;;;;;9.75;4.43;;;22.80;1.00;;;;;;5022931;28;20179;-76
2023/10/01 14:41:59;;;;;;;13.60;5.95;;;22.70;1.00;;;;;;5036546;28;20059;-76